Isle la Motte, Vermont
Current Conditions -  °F | °C
As of 12:55 PM on Friday 21 Nov 2014 (Local Time) from KFSO Reporting Station
Scattered Clouds Scattered Clouds  
Wind Chill: 15°   Ceiling: Unl
Heat Index: 24°   Visibility: 10mi
Dew Point:   Wind: 8mph
Humidity: 48%   Direction: 300°WNW
Pressure: 30.21"   Gusts: 16mph
Location:  44.88°N, 73.34°W
Report Text: KFSO 211755Z AUTO 30007G14KT 270V330 10SM SCT034 M04/M14 A3021 RMK AO2 T10451140 11041 21062
Loading
Personal Weather Stations






























Interactive Weather Map New forecast layout! Learn more

10-Day Weather Forecast

Advertisements
Track Severe Weather on mobile